sensor_id;sensor_type;location;lat;lon;timestamp;P1;durP1;ratioP1;P2;durP2;ratioP2
18159;SDS011;9205;52.032;4.314;2023-03-30T00:01:09;3.60;;;1.60;;
18159;SDS011;9205;52.032;4.314;2023-03-30T00:03:42;3.27;;;1.43;;
18159;SDS011;9205;52.032;4.314;2023-03-30T00:06:23;2.87;;;1.50;;
18159;SDS011;9205;52.032;4.314;2023-03-30T00:08:57;4.30;;;1.60;;
18159;SDS011;9205;52.032;4.314;2023-03-30T00:11:27;3.10;;;1.57;;
18159;SDS011;9205;52.032;4.314;2023-03-30T00:13:58;3.13;;;1.47;;
18159;SDS011;9205;52.032;4.314;2023-03-30T00:16:29;2.23;;;1.33;;
18159;SDS011;9205;52.032;4.314;2023-03-30T00:18:59;4.17;;;1.70;;
18159;SDS011;9205;52.032;4.314;2023-03-30T00:21:34;3.13;;;1.63;;
18159;SDS011;9205;52.032;4.314;2023-03-30T00:24:04;4.70;;;1.70;;
18159;SDS011;9205;52.032;4.314;2023-03-30T00:26:41;2.47;;;1.57;;
18159;SDS011;9205;52.032;4.314;2023-03-30T00:29:12;4.20;;;1.50;;
18159;SDS011;9205;52.032;4.314;2023-03-30T00:31:41;3.80;;;1.60;;
18159;SDS011;9205;52.032;4.314;2023-03-30T00:34:09;2.57;;;1.60;;
18159;SDS011;9205;52.032;4.314;2023-03-30T00:36:39;3.33;;;1.80;;
18159;SDS011;9205;52.032;4.314;2023-03-30T00:39:15;4.40;;;1.80;;
18159;SDS011;9205;52.032;4.314;2023-03-30T00:41:50;6.53;;;1.63;;
18159;SDS011;9205;52.032;4.314;2023-03-30T00:47:48;6.20;;;1.63;;
18159;SDS011;9205;52.032;4.314;2023-03-30T00:50:23;3.93;;;1.53;;
18159;SDS011;9205;52.032;4.314;2023-03-30T00:53:09;4.20;;;1.53;;
18159;SDS011;9205;52.032;4.314;2023-03-30T00:55:44;6.80;;;1.90;;
18159;SDS011;9205;52.032;4.314;2023-03-30T00:58:15;2.40;;;1.57;;
18159;SDS011;9205;52.032;4.314;2023-03-30T01:00:45;3.20;;;1.33;;
18159;SDS011;9205;52.032;4.314;2023-03-30T01:03:16;3.33;;;1.37;;
18159;SDS011;9205;52.032;4.314;2023-03-30T01:05:48;2.47;;;1.47;;
18159;SDS011;9205;52.032;4.314;2023-03-30T01:08:29;2.63;;;1.20;;
18159;SDS011;9205;52.032;4.314;2023-03-30T01:10:59;1.53;;;1.17;;
18159;SDS011;9205;52.032;4.314;2023-03-30T01:13:30;5.07;;;1.50;;
18159;SDS011;9205;52.032;4.314;2023-03-30T01:16:07;4.10;;;1.33;;
18159;SDS011;9205;52.032;4.314;2023-03-30T01:18:54;5.77;;;1.90;;
18159;SDS011;9205;52.032;4.314;2023-03-30T01:21:55;6.90;;;1.40;;
18159;SDS011;9205;52.032;4.314;2023-03-30T01:28:20;2.10;;;1.40;;
18159;SDS011;9205;52.032;4.314;2023-03-30T01:31:21;8.67;;;1.50;;
18159;SDS011;9205;52.032;4.314;2023-03-30T01:34:30;5.60;;;1.40;;
18159;SDS011;9205;52.032;4.314;2023-03-30T01:37:25;4.20;;;1.20;;
18159;SDS011;9205;52.032;4.314;2023-03-30T01:40:46;5.73;;;1.57;;
18159;SDS011;9205;52.032;4.314;2023-03-30T01:43:29;5.53;;;1.70;;
18159;SDS011;9205;52.032;4.314;2023-03-30T01:46:11;5.40;;;1.90;;
18159;SDS011;9205;52.032;4.314;2023-03-30T01:48:53;5.17;;;1.47;;
18159;SDS011;9205;52.032;4.314;2023-03-30T01:51:44;8.37;;;1.50;;
18159;SDS011;9205;52.032;4.314;2023-03-30T01:54:28;4.33;;;1.40;;
18159;SDS011;9205;52.032;4.314;2023-03-30T01:57:03;7.10;;;1.17;;
18159;SDS011;9205;52.032;4.314;2023-03-30T01:59:37;4.87;;;1.20;;
18159;SDS011;9205;52.032;4.314;2023-03-30T02:02:23;3.07;;;1.60;;
18159;SDS011;9205;52.032;4.314;2023-03-30T02:05:00;3.73;;;1.20;;
18159;SDS011;9205;52.032;4.314;2023-03-30T02:07:31;4.77;;;1.63;;
18159;SDS011;9205;52.032;4.314;2023-03-30T02:10:08;6.17;;;1.83;;
18159;SDS011;9205;52.032;4.314;2023-03-30T02:12:44;2.53;;;1.13;;
18159;SDS011;9205;52.032;4.314;2023-03-30T02:15:17;3.97;;;1.20;;
18159;SDS011;9205;52.032;4.314;2023-03-30T02:17:49;7.43;;;1.20;;
18159;SDS011;9205;52.032;4.314;2023-03-30T02:20:16;5.17;;;1.23;;
18159;SDS011;9205;52.032;4.314;2023-03-30T02:22:44;3.83;;;1.40;;
18159;SDS011;9205;52.032;4.314;2023-03-30T02:25:14;2.87;;;1.30;;
18159;SDS011;9205;52.032;4.314;2023-03-30T02:27:47;2.40;;;1.37;;
18159;SDS011;9205;52.032;4.314;2023-03-30T02:30:18;5.10;;;1.43;;
18159;SDS011;9205;52.032;4.314;2023-03-30T02:33:17;4.30;;;1.20;;
18159;SDS011;9205;52.032;4.314;2023-03-30T02:35:53;2.50;;;1.20;;
18159;SDS011;9205;52.032;4.314;2023-03-30T02:38:54;4.43;;;1.10;;
18159;SDS011;9205;52.032;4.314;2023-03-30T02:41:47;4.77;;;1.30;;
18159;SDS011;9205;52.032;4.314;2023-03-30T02:44:43;2.10;;;1.20;;
18159;SDS011;9205;52.032;4.314;2023-03-30T02:47:21;2.07;;;1.10;;
18159;SDS011;9205;52.032;4.314;2023-03-30T02:50:03;7.00;;;1.20;;
18159;SDS011;9205;52.032;4.314;2023-03-30T02:52:44;2.40;;;1.00;;
18159;SDS011;9205;52.032;4.314;2023-03-30T02:55:29;2.60;;;1.23;;
18159;SDS011;9205;52.032;4.314;2023-03-30T02:58:25;1.50;;;0.80;;
18159;SDS011;9205;52.032;4.314;2023-03-30T03:01:14;3.73;;;1.20;;
18159;SDS011;9205;52.032;4.314;2023-03-30T03:03:57;1.53;;;1.30;;
18159;SDS011;9205;52.032;4.314;2023-03-30T03:06:39;5.13;;;0.90;;
18159;SDS011;9205;52.032;4.314;2023-03-30T03:09:17;4.30;;;1.30;;
18159;SDS011;9205;52.032;4.314;2023-03-30T03:11:48;2.07;;;1.30;;
18159;SDS011;9205;52.032;4.314;2023-03-30T03:14:15;2.70;;;1.30;;
18159;SDS011;9205;52.032;4.314;2023-03-30T03:16:47;2.77;;;0.87;;
18159;SDS011;9205;52.032;4.314;2023-03-30T03:19:19;5.20;;;1.30;;
18159;SDS011;9205;52.032;4.314;2023-03-30T03:21:54;2.60;;;1.20;;
18159;SDS011;9205;52.032;4.314;2023-03-30T03:24:32;3.90;;;1.10;;
18159;SDS011;9205;52.032;4.314;2023-03-30T03:27:22;5.70;;;1.60;;
18159;SDS011;9205;52.032;4.314;2023-03-30T03:30:11;3.70;;;1.17;;
18159;SDS011;9205;52.032;4.314;2023-03-30T03:32:59;4.50;;;1.53;;
18159;SDS011;9205;52.032;4.314;2023-03-30T03:35:31;4.80;;;1.30;;
18159;SDS011;9205;52.032;4.314;2023-03-30T03:38:02;6.43;;;1.60;;
18159;SDS011;9205;52.032;4.314;2023-03-30T03:40:32;2.00;;;0.93;;
18159;SDS011;9205;52.032;4.314;2023-03-30T03:43:02;2.73;;;1.23;;
18159;SDS011;9205;52.032;4.314;2023-03-30T03:45:32;3.27;;;1.00;;
18159;SDS011;9205;52.032;4.314;2023-03-30T03:48:01;4.97;;;1.53;;
18159;SDS011;9205;52.032;4.314;2023-03-30T03:50:49;4.53;;;0.93;;
18159;SDS011;9205;52.032;4.314;2023-03-30T03:53:19;4.03;;;1.10;;
18159;SDS011;9205;52.032;4.314;2023-03-30T03:55:52;4.87;;;1.80;;
18159;SDS011;9205;52.032;4.314;2023-03-30T03:58:23;5.60;;;1.10;;
18159;SDS011;9205;52.032;4.314;2023-03-30T04:00:56;7.43;;;1.50;;
18159;SDS011;9205;52.032;4.314;2023-03-30T04:03:33;4.70;;;1.50;;
18159;SDS011;9205;52.032;4.314;2023-03-30T04:09:15;5.10;;;1.43;;
18159;SDS011;9205;52.032;4.314;2023-03-30T04:12:07;6.67;;;1.07;;
18159;SDS011;9205;52.032;4.314;2023-03-30T04:14:56;14.03;;;2.07;;
18159;SDS011;9205;52.032;4.314;2023-03-30T04:17:56;6.20;;;1.70;;
18159;SDS011;9205;52.032;4.314;2023-03-30T04:20:47;6.10;;;1.77;;
18159;SDS011;9205;52.032;4.314;2023-03-30T04:23:29;8.57;;;1.77;;
18159;SDS011;9205;52.032;4.314;2023-03-30T04:26:20;4.80;;;1.40;;
18159;SDS011;9205;52.032;4.314;2023-03-30T04:29:00;6.50;;;1.60;;
18159;SDS011;9205;52.032;4.314;2023-03-30T04:31:47;8.60;;;1.97;;
18159;SDS011;9205;52.032;4.314;2023-03-30T04:34:43;6.97;;;1.60;;
18159;SDS011;9205;52.032;4.314;2023-03-30T04:37:31;9.87;;;2.13;;
18159;SDS011;9205;52.032;4.314;2023-03-30T04:40:17;5.50;;;1.77;;
18159;SDS011;9205;52.032;4.314;2023-03-30T04:43:04;7.97;;;1.60;;
18159;SDS011;9205;52.032;4.314;2023-03-30T04:46:13;9.03;;;1.80;;
18159;SDS011;9205;52.032;4.314;2023-03-30T04:49:07;5.17;;;1.43;;
18159;SDS011;9205;52.032;4.314;2023-03-30T04:51:54;13.33;;;1.87;;
18159;SDS011;9205;52.032;4.314;2023-03-30T04:55:02;9.67;;;1.90;;
18159;SDS011;9205;52.032;4.314;2023-03-30T04:57:53;13.63;;;2.03;;
18159;SDS011;9205;52.032;4.314;2023-03-30T05:00:33;10.13;;;1.90;;
18159;SDS011;9205;52.032;4.314;2023-03-30T05:03:22;7.17;;;1.87;;
18159;SDS011;9205;52.032;4.314;2023-03-30T05:06:03;6.70;;;1.60;;
18159;SDS011;9205;52.032;4.314;2023-03-30T05:08:54;15.27;;;2.87;;
18159;SDS011;9205;52.032;4.314;2023-03-30T05:11:36;8.77;;;1.93;;
18159;SDS011;9205;52.032;4.314;2023-03-30T05:14:20;12.93;;;2.03;;
18159;SDS011;9205;52.032;4.314;2023-03-30T05:17:12;13.43;;;2.03;;
18159;SDS011;9205;52.032;4.314;2023-03-30T05:19:55;15.60;;;3.47;;
18159;SDS011;9205;52.032;4.314;2023-03-30T05:22:43;11.60;;;2.37;;
18159;SDS011;9205;52.032;4.314;2023-03-30T05:25:44;9.90;;;1.70;;
18159;SDS011;9205;52.032;4.314;2023-03-30T05:28:42;12.67;;;2.17;;
18159;SDS011;9205;52.032;4.314;2023-03-30T05:31:34;4.93;;;1.17;;
18159;SDS011;9205;52.032;4.314;2023-03-30T05:34:05;6.30;;;1.67;;
18159;SDS011;9205;52.032;4.314;2023-03-30T05:36:56;6.70;;;1.43;;
18159;SDS011;9205;52.032;4.314;2023-03-30T05:39:26;14.00;;;2.03;;
18159;SDS011;9205;52.032;4.314;2023-03-30T05:42:10;8.40;;;2.40;;
18159;SDS011;9205;52.032;4.314;2023-03-30T05:44:45;11.93;;;2.70;;
18159;SDS011;9205;52.032;4.314;2023-03-30T05:47:42;9.57;;;2.17;;
18159;SDS011;9205;52.032;4.314;2023-03-30T05:50:30;4.40;;;1.40;;
18159;SDS011;9205;52.032;4.314;2023-03-30T05:53:08;8.50;;;1.93;;
18159;SDS011;9205;52.032;4.314;2023-03-30T05:55:40;9.67;;;2.07;;
18159;SDS011;9205;52.032;4.314;2023-03-30T05:58:36;8.27;;;1.80;;
18159;SDS011;9205;52.032;4.314;2023-03-30T06:01:24;15.73;;;2.40;;
18159;SDS011;9205;52.032;4.314;2023-03-30T06:03:55;11.80;;;1.83;;
18159;SDS011;9205;52.032;4.314;2023-03-30T06:06:33;11.67;;;2.00;;
18159;SDS011;9205;52.032;4.314;2023-03-30T06:09:04;9.00;;;2.07;;
18159;SDS011;9205;52.032;4.314;2023-03-30T06:11:33;17.27;;;3.13;;
18159;SDS011;9205;52.032;4.314;2023-03-30T06:14:10;19.23;;;2.20;;
18159;SDS011;9205;52.032;4.314;2023-03-30T06:16:43;9.07;;;2.07;;
18159;SDS011;9205;52.032;4.314;2023-03-30T06:19:12;15.33;;;2.00;;
18159;SDS011;9205;52.032;4.314;2023-03-30T06:21:40;12.00;;;2.10;;
18159;SDS011;9205;52.032;4.314;2023-03-30T06:24:19;11.60;;;2.00;;
18159;SDS011;9205;52.032;4.314;2023-03-30T06:26:49;10.23;;;2.40;;
18159;SDS011;9205;52.032;4.314;2023-03-30T06:29:21;13.50;;;2.53;;
18159;SDS011;9205;52.032;4.314;2023-03-30T06:31:55;9.97;;;2.83;;
18159;SDS011;9205;52.032;4.314;2023-03-30T06:34:42;15.53;;;2.70;;
18159;SDS011;9205;52.032;4.314;2023-03-30T06:37:12;14.10;;;2.47;;
18159;SDS011;9205;52.032;4.314;2023-03-30T06:39:40;12.73;;;2.30;;
18159;SDS011;9205;52.032;4.314;2023-03-30T06:42:08;9.53;;;1.97;;
18159;SDS011;9205;52.032;4.314;2023-03-30T06:44:56;22.87;;;3.17;;
18159;SDS011;9205;52.032;4.314;2023-03-30T06:47:25;19.53;;;2.47;;
18159;SDS011;9205;52.032;4.314;2023-03-30T06:49:53;16.67;;;2.53;;
18159;SDS011;9205;52.032;4.314;2023-03-30T06:52:47;10.47;;;1.83;;
18159;SDS011;9205;52.032;4.314;2023-03-30T06:55:15;11.70;;;2.67;;
18159;SDS011;9205;52.032;4.314;2023-03-30T06:57:44;12.43;;;2.30;;
18159;SDS011;9205;52.032;4.314;2023-03-30T07:00:13;10.77;;;1.73;;
18159;SDS011;9205;52.032;4.314;2023-03-30T07:03:03;20.63;;;2.53;;
18159;SDS011;9205;52.032;4.314;2023-03-30T07:05:41;14.30;;;2.60;;
18159;SDS011;9205;52.032;4.314;2023-03-30T07:08:17;20.53;;;2.37;;
18159;SDS011;9205;52.032;4.314;2023-03-30T07:10:50;19.07;;;2.90;;
18159;SDS011;9205;52.032;4.314;2023-03-30T07:13:21;12.60;;;2.17;;
18159;SDS011;9205;52.032;4.314;2023-03-30T07:15:50;16.83;;;2.70;;
18159;SDS011;9205;52.032;4.314;2023-03-30T07:18:19;16.73;;;2.53;;
18159;SDS011;9205;52.032;4.314;2023-03-30T07:20:47;15.07;;;2.83;;
18159;SDS011;9205;52.032;4.314;2023-03-30T07:23:19;19.10;;;3.37;;
18159;SDS011;9205;52.032;4.314;2023-03-30T07:25:49;19.13;;;3.20;;
18159;SDS011;9205;52.032;4.314;2023-03-30T07:28:23;20.17;;;3.00;;
18159;SDS011;9205;52.032;4.314;2023-03-30T07:30:53;17.70;;;2.97;;
18159;SDS011;9205;52.032;4.314;2023-03-30T07:33:33;13.63;;;2.70;;
18159;SDS011;9205;52.032;4.314;2023-03-30T07:36:07;15.27;;;2.87;;
18159;SDS011;9205;52.032;4.314;2023-03-30T07:38:36;22.20;;;2.67;;
18159;SDS011;9205;52.032;4.314;2023-03-30T07:41:06;17.83;;;2.57;;
18159;SDS011;9205;52.032;4.314;2023-03-30T07:43:35;18.93;;;2.70;;
18159;SDS011;9205;52.032;4.314;2023-03-30T07:46:04;22.57;;;2.60;;
18159;SDS011;9205;52.032;4.314;2023-03-30T07:48:38;10.53;;;2.33;;
18159;SDS011;9205;52.032;4.314;2023-03-30T07:51:07;25.60;;;2.97;;
18159;SDS011;9205;52.032;4.314;2023-03-30T07:53:46;12.67;;;2.33;;
18159;SDS011;9205;52.032;4.314;2023-03-30T07:56:21;21.60;;;3.80;;
18159;SDS011;9205;52.032;4.314;2023-03-30T07:58:53;19.57;;;3.00;;
18159;SDS011;9205;52.032;4.314;2023-03-30T08:01:27;12.83;;;2.23;;
18159;SDS011;9205;52.032;4.314;2023-03-30T08:04:11;17.40;;;2.50;;
18159;SDS011;9205;52.032;4.314;2023-03-30T08:06:42;24.57;;;2.77;;
18159;SDS011;9205;52.032;4.314;2023-03-30T08:09:10;14.17;;;2.93;;
18159;SDS011;9205;52.032;4.314;2023-03-30T08:11:38;18.70;;;3.07;;
18159;SDS011;9205;52.032;4.314;2023-03-30T08:14:07;12.73;;;2.17;;
18159;SDS011;9205;52.032;4.314;2023-03-30T08:16:35;12.50;;;2.80;;
18159;SDS011;9205;52.032;4.314;2023-03-30T08:19:03;18.83;;;3.10;;
18159;SDS011;9205;52.032;4.314;2023-03-30T08:21:34;16.73;;;2.93;;
18159;SDS011;9205;52.032;4.314;2023-03-30T08:24:02;17.40;;;2.77;;
18159;SDS011;9205;52.032;4.314;2023-03-30T08:26:36;16.60;;;3.30;;
18159;SDS011;9205;52.032;4.314;2023-03-30T08:29:04;12.10;;;2.57;;
18159;SDS011;9205;52.032;4.314;2023-03-30T08:31:32;19.23;;;2.57;;
18159;SDS011;9205;52.032;4.314;2023-03-30T08:34:02;19.03;;;3.93;;
18159;SDS011;9205;52.032;4.314;2023-03-30T08:36:32;15.27;;;2.67;;
18159;SDS011;9205;52.032;4.314;2023-03-30T08:39:02;21.17;;;3.27;;
18159;SDS011;9205;52.032;4.314;2023-03-30T08:41:40;19.43;;;4.10;;
18159;SDS011;9205;52.032;4.314;2023-03-30T08:44:32;17.63;;;2.20;;
18159;SDS011;9205;52.032;4.314;2023-03-30T08:47:09;16.13;;;2.77;;
18159;SDS011;9205;52.032;4.314;2023-03-30T08:49:43;19.30;;;3.23;;
18159;SDS011;9205;52.032;4.314;2023-03-30T08:52:31;10.87;;;2.60;;
18159;SDS011;9205;52.032;4.314;2023-03-30T08:55:01;13.93;;;2.70;;
18159;SDS011;9205;52.032;4.314;2023-03-30T08:57:31;15.23;;;2.97;;
18159;SDS011;9205;52.032;4.314;2023-03-30T09:00:19;17.57;;;3.27;;
18159;SDS011;9205;52.032;4.314;2023-03-30T09:03:00;17.43;;;2.60;;
18159;SDS011;9205;52.032;4.314;2023-03-30T09:05:39;22.07;;;2.93;;
18159;SDS011;9205;52.032;4.314;2023-03-30T09:08:20;19.87;;;2.70;;
18159;SDS011;9205;52.032;4.314;2023-03-30T09:10:55;16.27;;;3.20;;
18159;SDS011;9205;52.032;4.314;2023-03-30T09:13:30;14.20;;;2.37;;
18159;SDS011;9205;52.032;4.314;2023-03-30T09:16:03;20.53;;;2.80;;
18159;SDS011;9205;52.032;4.314;2023-03-30T09:18:42;14.10;;;2.93;;
18159;SDS011;9205;52.032;4.314;2023-03-30T09:21:13;19.17;;;3.20;;
18159;SDS011;9205;52.032;4.314;2023-03-30T09:23:43;21.07;;;3.83;;
18159;SDS011;9205;52.032;4.314;2023-03-30T09:26:17;16.50;;;2.77;;
18159;SDS011;9205;52.032;4.314;2023-03-30T09:29:02;10.50;;;2.27;;
18159;SDS011;9205;52.032;4.314;2023-03-30T09:31:42;27.20;;;3.40;;
18159;SDS011;9205;52.032;4.314;2023-03-30T09:34:19;18.33;;;3.30;;
18159;SDS011;9205;52.032;4.314;2023-03-30T09:36:56;19.60;;;2.57;;
18159;SDS011;9205;52.032;4.314;2023-03-30T09:39:35;12.37;;;2.80;;
18159;SDS011;9205;52.032;4.314;2023-03-30T09:42:12;20.40;;;3.27;;
18159;SDS011;9205;52.032;4.314;2023-03-30T09:45:01;15.07;;;3.37;;
18159;SDS011;9205;52.032;4.314;2023-03-30T09:47:43;20.40;;;3.17;;
18159;SDS011;9205;52.032;4.314;2023-03-30T09:50:16;14.37;;;3.07;;
18159;SDS011;9205;52.032;4.314;2023-03-30T09:52:58;22.27;;;3.73;;
18159;SDS011;9205;52.032;4.314;2023-03-30T09:55:31;18.20;;;3.00;;
18159;SDS011;9205;52.032;4.314;2023-03-30T09:58:11;23.17;;;3.47;;
18159;SDS011;9205;52.032;4.314;2023-03-30T10:00:59;13.27;;;2.93;;
18159;SDS011;9205;52.032;4.314;2023-03-30T10:03:37;22.50;;;3.63;;
18159;SDS011;9205;52.032;4.314;2023-03-30T10:06:07;11.30;;;2.87;;
18159;SDS011;9205;52.032;4.314;2023-03-30T10:08:43;24.30;;;3.33;;
18159;SDS011;9205;52.032;4.314;2023-03-30T10:11:20;18.13;;;2.87;;
18159;SDS011;9205;52.032;4.314;2023-03-30T10:14:02;15.07;;;2.73;;
18159;SDS011;9205;52.032;4.314;2023-03-30T10:16:32;20.00;;;3.53;;
18159;SDS011;9205;52.032;4.314;2023-03-30T10:19:02;17.20;;;2.57;;
18159;SDS011;9205;52.032;4.314;2023-03-30T10:21:46;24.63;;;3.30;;
18159;SDS011;9205;52.032;4.314;2023-03-30T10:24:20;13.20;;;2.50;;
18159;SDS011;9205;52.032;4.314;2023-03-30T10:26:52;15.43;;;2.87;;
18159;SDS011;9205;52.032;4.314;2023-03-30T10:29:25;18.13;;;3.13;;
18159;SDS011;9205;52.032;4.314;2023-03-30T10:32:02;15.70;;;2.50;;
18159;SDS011;9205;52.032;4.314;2023-03-30T10:34:45;17.60;;;2.73;;
18159;SDS011;9205;52.032;4.314;2023-03-30T10:37:21;16.33;;;2.40;;
18159;SDS011;9205;52.032;4.314;2023-03-30T10:40:08;13.80;;;3.10;;
18159;SDS011;9205;52.032;4.314;2023-03-30T10:42:58;12.53;;;2.83;;
18159;SDS011;9205;52.032;4.314;2023-03-30T10:45:31;17.67;;;2.70;;
18159;SDS011;9205;52.032;4.314;2023-03-30T10:48:17;11.90;;;2.30;;
18159;SDS011;9205;52.032;4.314;2023-03-30T10:51:09;15.10;;;3.03;;
18159;SDS011;9205;52.032;4.314;2023-03-30T10:53:58;26.47;;;3.20;;
18159;SDS011;9205;52.032;4.314;2023-03-30T10:56:37;16.83;;;3.03;;
18159;SDS011;9205;52.032;4.314;2023-03-30T10:59:16;15.27;;;3.03;;
18159;SDS011;9205;52.032;4.314;2023-03-30T11:02:24;19.13;;;3.53;;
18159;SDS011;9205;52.032;4.314;2023-03-30T11:05:09;19.53;;;2.73;;
18159;SDS011;9205;52.032;4.314;2023-03-30T11:07:44;15.07;;;2.87;;
18159;SDS011;9205;52.032;4.314;2023-03-30T11:10:34;13.17;;;3.10;;
18159;SDS011;9205;52.032;4.314;2023-03-30T11:13:06;16.03;;;2.67;;
18159;SDS011;9205;52.032;4.314;2023-03-30T11:15:48;15.13;;;2.53;;
18159;SDS011;9205;52.032;4.314;2023-03-30T11:18:27;26.00;;;3.97;;
18159;SDS011;9205;52.032;4.314;2023-03-30T11:21:07;15.23;;;2.80;;
18159;SDS011;9205;52.032;4.314;2023-03-30T11:23:43;21.83;;;3.23;;
18159;SDS011;9205;52.032;4.314;2023-03-30T11:26:22;15.10;;;2.70;;
18159;SDS011;9205;52.032;4.314;2023-03-30T11:29:04;16.03;;;2.60;;
18159;SDS011;9205;52.032;4.314;2023-03-30T11:31:55;16.13;;;3.33;;
18159;SDS011;9205;52.032;4.314;2023-03-30T11:34:45;25.97;;;2.97;;
18159;SDS011;9205;52.032;4.314;2023-03-30T11:37:27;20.17;;;3.40;;
18159;SDS011;9205;52.032;4.314;2023-03-30T11:40:11;16.50;;;3.00;;
18159;SDS011;9205;52.032;4.314;2023-03-30T11:42:51;19.77;;;3.17;;
18159;SDS011;9205;52.032;4.314;2023-03-30T11:48:24;10.77;;;2.50;;
18159;SDS011;9205;52.032;4.314;2023-03-30T11:51:44;16.80;;;3.50;;
18159;SDS011;9205;52.032;4.314;2023-03-30T11:54:35;14.07;;;2.83;;
18159;SDS011;9205;52.032;4.314;2023-03-30T11:57:51;16.70;;;3.23;;
18159;SDS011;9205;52.032;4.314;2023-03-30T12:03:55;23.87;;;2.83;;
18159;SDS011;9205;52.032;4.314;2023-03-30T12:06:35;18.33;;;2.80;;
18159;SDS011;9205;52.032;4.314;2023-03-30T12:12:30;22.07;;;3.90;;
18159;SDS011;9205;52.032;4.314;2023-03-30T12:15:09;19.33;;;3.17;;
18159;SDS011;9205;52.032;4.314;2023-03-30T12:17:56;15.63;;;2.40;;
18159;SDS011;9205;52.032;4.314;2023-03-30T12:20:50;15.50;;;3.07;;
18159;SDS011;9205;52.032;4.314;2023-03-30T12:23:40;18.27;;;2.83;;
18159;SDS011;9205;52.032;4.314;2023-03-30T12:26:26;16.33;;;3.10;;
18159;SDS011;9205;52.032;4.314;2023-03-30T12:29:07;16.43;;;2.60;;
18159;SDS011;9205;52.032;4.314;2023-03-30T12:34:48;33.37;;;3.93;;
18159;SDS011;9205;52.032;4.314;2023-03-30T12:37:20;20.57;;;3.13;;
18159;SDS011;9205;52.032;4.314;2023-03-30T12:39:53;17.80;;;2.50;;
18159;SDS011;9205;52.032;4.314;2023-03-30T12:42:34;12.83;;;2.83;;
18159;SDS011;9205;52.032;4.314;2023-03-30T12:45:15;21.10;;;3.17;;
18159;SDS011;9205;52.032;4.314;2023-03-30T12:48:04;19.63;;;3.07;;
18159;SDS011;9205;52.032;4.314;2023-03-30T12:50:59;15.40;;;3.23;;
18159;SDS011;9205;52.032;4.314;2023-03-30T12:53:46;21.10;;;2.60;;
18159;SDS011;9205;52.032;4.314;2023-03-30T12:56:50;21.83;;;3.50;;
18159;SDS011;9205;52.032;4.314;2023-03-30T12:59:58;21.87;;;3.90;;
18159;SDS011;9205;52.032;4.314;2023-03-30T13:03:16;21.87;;;3.47;;
18159;SDS011;9205;52.032;4.314;2023-03-30T13:06:11;14.00;;;2.20;;
18159;SDS011;9205;52.032;4.314;2023-03-30T13:08:55;19.03;;;3.50;;
18159;SDS011;9205;52.032;4.314;2023-03-30T13:12:23;11.77;;;2.27;;
18159;SDS011;9205;52.032;4.314;2023-03-30T13:15:29;15.27;;;3.40;;
18159;SDS011;9205;52.032;4.314;2023-03-30T13:21:03;15.87;;;3.57;;
18159;SDS011;9205;52.032;4.314;2023-03-30T13:23:59;14.47;;;3.53;;
18159;SDS011;9205;52.032;4.314;2023-03-30T13:26:47;17.33;;;2.93;;
18159;SDS011;9205;52.032;4.314;2023-03-30T13:29:18;10.77;;;2.03;;
18159;SDS011;9205;52.032;4.314;2023-03-30T13:31:58;14.43;;;2.77;;
18159;SDS011;9205;52.032;4.314;2023-03-30T13:34:49;15.17;;;3.07;;
18159;SDS011;9205;52.032;4.314;2023-03-30T13:37:43;18.60;;;3.30;;
18159;SDS011;9205;52.032;4.314;2023-03-30T13:40:36;15.10;;;3.00;;
18159;SDS011;9205;52.032;4.314;2023-03-30T13:43:18;16.87;;;3.30;;
18159;SDS011;9205;52.032;4.314;2023-03-30T13:46:07;19.97;;;3.50;;
18159;SDS011;9205;52.032;4.314;2023-03-30T13:48:53;9.87;;;2.40;;
18159;SDS011;9205;52.032;4.314;2023-03-30T13:51:39;12.60;;;2.30;;
18159;SDS011;9205;52.032;4.314;2023-03-30T13:54:10;15.03;;;2.40;;
18159;SDS011;9205;52.032;4.314;2023-03-30T13:56:55;13.63;;;2.70;;
18159;SDS011;9205;52.032;4.314;2023-03-30T13:59:31;13.73;;;2.97;;
18159;SDS011;9205;52.032;4.314;2023-03-30T14:02:04;12.07;;;2.83;;
18159;SDS011;9205;52.032;4.314;2023-03-30T14:04:42;14.83;;;2.30;;
18159;SDS011;9205;52.032;4.314;2023-03-30T14:07:14;10.90;;;2.20;;
18159;SDS011;9205;52.032;4.314;2023-03-30T14:10:00;21.60;;;3.37;;
18159;SDS011;9205;52.032;4.314;2023-03-30T14:12:39;14.27;;;2.20;;
18159;SDS011;9205;52.032;4.314;2023-03-30T14:15:16;21.63;;;2.70;;
18159;SDS011;9205;52.032;4.314;2023-03-30T14:17:57;18.77;;;2.63;;
18159;SDS011;9205;52.032;4.314;2023-03-30T14:20:44;12.10;;;2.50;;
18159;SDS011;9205;52.032;4.314;2023-03-30T14:23:21;18.17;;;2.77;;
18159;SDS011;9205;52.032;4.314;2023-03-30T14:26:04;12.97;;;2.33;;
18159;SDS011;9205;52.032;4.314;2023-03-30T14:28:54;9.60;;;2.30;;
18159;SDS011;9205;52.032;4.314;2023-03-30T14:31:36;16.90;;;2.63;;
18159;SDS011;9205;52.032;4.314;2023-03-30T14:34:24;21.00;;;2.87;;
18159;SDS011;9205;52.032;4.314;2023-03-30T14:37:02;16.83;;;2.67;;
18159;SDS011;9205;52.032;4.314;2023-03-30T14:39:53;14.47;;;2.47;;
18159;SDS011;9205;52.032;4.314;2023-03-30T14:42:34;11.23;;;2.13;;
18159;SDS011;9205;52.032;4.314;2023-03-30T14:45:06;19.23;;;3.07;;
18159;SDS011;9205;52.032;4.314;2023-03-30T14:47:44;14.37;;;2.27;;
18159;SDS011;9205;52.032;4.314;2023-03-30T14:50:16;11.90;;;2.30;;
18159;SDS011;9205;52.032;4.314;2023-03-30T14:52:50;13.40;;;2.93;;
18159;SDS011;9205;52.032;4.314;2023-03-30T14:55:25;11.40;;;2.53;;
18159;SDS011;9205;52.032;4.314;2023-03-30T14:57:54;18.33;;;2.10;;
18159;SDS011;9205;52.032;4.314;2023-03-30T15:00:28;10.77;;;1.60;;
18159;SDS011;9205;52.032;4.314;2023-03-30T15:03:05;10.13;;;2.50;;
18159;SDS011;9205;52.032;4.314;2023-03-30T15:05:40;9.53;;;2.17;;
18159;SDS011;9205;52.032;4.314;2023-03-30T15:08:15;11.13;;;1.90;;
18159;SDS011;9205;52.032;4.314;2023-03-30T15:11:00;10.37;;;2.23;;
18159;SDS011;9205;52.032;4.314;2023-03-30T15:13:38;12.70;;;2.30;;
18159;SDS011;9205;52.032;4.314;2023-03-30T15:16:14;16.00;;;2.43;;
18159;SDS011;9205;52.032;4.314;2023-03-30T15:18:56;13.93;;;2.40;;
18159;SDS011;9205;52.032;4.314;2023-03-30T15:21:31;10.57;;;2.70;;
18159;SDS011;9205;52.032;4.314;2023-03-30T15:24:03;13.70;;;2.67;;
18159;SDS011;9205;52.032;4.314;2023-03-30T15:26:50;14.93;;;2.57;;
18159;SDS011;9205;52.032;4.314;2023-03-30T15:29:24;13.20;;;2.60;;
18159;SDS011;9205;52.032;4.314;2023-03-30T15:32:05;15.57;;;2.60;;
18159;SDS011;9205;52.032;4.314;2023-03-30T15:34:57;9.50;;;2.33;;
18159;SDS011;9205;52.032;4.314;2023-03-30T15:37:32;14.87;;;2.27;;
18159;SDS011;9205;52.032;4.314;2023-03-30T15:40:21;11.60;;;2.43;;
18159;SDS011;9205;52.032;4.314;2023-03-30T15:43:20;17.77;;;2.77;;
18159;SDS011;9205;52.032;4.314;2023-03-30T15:46:00;9.57;;;1.67;;
18159;SDS011;9205;52.032;4.314;2023-03-30T15:48:38;12.73;;;2.07;;
18159;SDS011;9205;52.032;4.314;2023-03-30T15:51:20;14.63;;;2.20;;
18159;SDS011;9205;52.032;4.314;2023-03-30T15:53:53;10.97;;;2.47;;
18159;SDS011;9205;52.032;4.314;2023-03-30T15:56:37;17.90;;;2.27;;
18159;SDS011;9205;52.032;4.314;2023-03-30T15:59:14;11.10;;;1.90;;
18159;SDS011;9205;52.032;4.314;2023-03-30T16:01:50;11.80;;;2.20;;
18159;SDS011;9205;52.032;4.314;2023-03-30T16:04:39;13.67;;;1.83;;
18159;SDS011;9205;52.032;4.314;2023-03-30T16:07:19;11.10;;;2.17;;
18159;SDS011;9205;52.032;4.314;2023-03-30T16:09:50;11.33;;;2.10;;
18159;SDS011;9205;52.032;4.314;2023-03-30T16:12:28;14.70;;;2.17;;
18159;SDS011;9205;52.032;4.314;2023-03-30T16:15:11;15.03;;;2.80;;
18159;SDS011;9205;52.032;4.314;2023-03-30T16:17:55;12.70;;;3.03;;
18159;SDS011;9205;52.032;4.314;2023-03-30T16:20:48;17.00;;;2.83;;
18159;SDS011;9205;52.032;4.314;2023-03-30T16:23:18;14.13;;;2.20;;
18159;SDS011;9205;52.032;4.314;2023-03-30T16:25:47;11.47;;;2.17;;
18159;SDS011;9205;52.032;4.314;2023-03-30T16:28:22;16.60;;;3.13;;
18159;SDS011;9205;52.032;4.314;2023-03-30T16:30:55;8.40;;;2.20;;
18159;SDS011;9205;52.032;4.314;2023-03-30T16:33:45;10.03;;;2.17;;
18159;SDS011;9205;52.032;4.314;2023-03-30T16:36:18;12.70;;;2.37;;